Time;durP1;ratioP1;P1;durP2;ratioP2;P2;SDS_P1;SDS_P2;PMS_P1;PMS_P2;Temp;Humidity;BMP_temperature;BMP_pressure;BME280_temperature;BME280_humidity;BME280_pressure;Samples;Min_cycle;Max_cycle;Signal;HPM_P1;HPM_P2
2023/05/16 02:00:18;;;;;;;7.80;6.72;;;;;;;;;;4979901;28;20074;-75
2023/05/16 02:02:44;;;;;;;12.48;7.28;;;;;;;;;;4308084;33;20044;-79
2023/05/16 02:05:10;;;;;;;9.52;7.07;;;;;;;;;;4309825;33;20168;-78
2023/05/16 02:07:36;;;;;;;8.98;7.15;;;;;;;;;;4307540;33;20079;-82
2023/05/16 02:10:03;;;;;;;11.23;8.05;;;;;;;;;;4310096;33;20176;-82
2023/05/16 02:12:30;;;;;;;11.73;6.93;;;;;;;;;;4311098;33;20119;-81
2023/05/16 02:14:56;;;;;;;11.57;6.57;;;;;;;;;;4277183;33;20049;-82
2023/05/16 02:17:23;;;;;;;14.60;7.15;;;;;;;;;;4265671;33;20079;-82
2023/05/16 02:19:49;;;;;;;12.60;7.28;;;;;;;;;;4262466;33;20114;-82
2023/05/16 02:22:15;;;;;;;10.75;8.23;;;;;;;;;;4265373;33;20091;-86
2023/05/16 02:24:41;;;;;;;8.43;7.20;;;;;;;;;;4263756;33;20030;-87
2023/05/16 02:27:07;;;;;;;7.50;6.50;;;;;;;;;;4264960;33;20093;-84
2023/05/16 02:29:33;;;;;;;17.05;7.65;;;;;;;;;;4266014;33;20072;-85
2023/05/16 02:32:00;;;;;;;9.57;6.55;;;;;;;;;;4261343;33;20046;-82
2023/05/16 02:34:26;;;;;;;8.65;7.18;;;;;;;;;;4275569;33;20221;-81
2023/05/16 02:36:52;;;;;;;11.10;6.72;;;;;;;;;;4277983;33;20431;-83
2023/05/16 02:39:18;;;;;;;11.05;6.85;;;;;;;;;;4277684;33;20155;-82
2023/05/16 02:41:44;;;;;;;9.52;7.35;;;;;;;;;;4262695;33;20071;-78
2023/05/16 02:44:10;;;;;;;7.87;6.25;;;;;;;;;;4262508;33;20061;-80
2023/05/16 02:46:37;;;;;;;9.93;6.37;;;;;;;;;;4264235;33;20130;-84
2023/05/16 02:49:03;;;;;;;11.52;8.18;;;;;;;;;;4255058;33;20117;-85
2023/05/16 02:51:29;;;;;;;10.32;6.90;;;;;;;;;;4249452;33;20096;-83
2023/05/16 02:54:02;;;;;;;11.43;7.32;;;;;;;;;;4248561;33;20391;-82
2023/05/16 02:56:28;;;;;;;8.10;6.40;;;;;;;;;;4249253;33;20039;-81
2023/05/16 02:58:55;;;;;;;10.30;7.87;;;;;;;;;;4239566;33;20125;-81
2023/05/16 03:01:21;;;;;;;10.23;7.28;;;;;;;;;;4247449;33;20042;-81
2023/05/16 03:03:54;;;;;;;8.55;7.15;;;;;;;;;;4224017;33;20027;-81
2023/05/16 03:06:20;;;;;;;8.05;7.25;;;;;;;;;;4223680;33;20081;-77
2023/05/16 03:08:46;;;;;;;11.93;7.53;;;;;;;;;;4223517;33;20064;-85
2023/05/16 03:11:13;;;;;;;11.25;7.35;;;;;;;;;;4223648;33;20059;-84
2023/05/16 03:13:40;;;;;;;11.30;7.12;;;;;;;;;;4223518;33;20309;-86
2023/05/16 03:16:07;;;;;;;10.57;7.28;;;;;;;;;;4224504;33;20114;-85
2023/05/16 03:18:34;;;;;;;12.95;7.40;;;;;;;;;;4221474;33;20035;-79
2023/05/16 03:21:02;;;;;;;10.70;7.40;;;;;;;;;;4261076;33;20549;-82
2023/05/16 03:23:28;;;;;;;9.15;7.32;;;;;;;;;;4302298;33;20077;-85
2023/05/16 03:25:55;;;;;;;7.43;6.70;;;;;;;;;;4308501;33;20083;-79
2023/05/16 03:28:21;;;;;;;11.38;7.80;;;;;;;;;;4309569;33;20196;-80
2023/05/16 03:30:47;;;;;;;10.98;7.37;;;;;;;;;;4297848;33;20438;-83
2023/05/16 03:33:13;;;;;;;11.93;7.43;;;;;;;;;;4304884;33;20065;-85
2023/05/16 03:35:40;;;;;;;9.18;6.75;;;;;;;;;;4308465;33;20091;-81
2023/05/16 03:38:06;;;;;;;12.88;6.85;;;;;;;;;;4309488;33;20065;-83
2023/05/16 03:40:32;;;;;;;9.13;7.05;;;;;;;;;;4308266;33;20480;-81
2023/05/16 03:42:58;;;;;;;18.73;7.85;;;;;;;;;;4307498;33;20422;-77
2023/05/16 03:45:25;;;;;;;10.30;7.78;;;;;;;;;;4294540;33;20057;-84
2023/05/16 03:47:51;;;;;;;12.18;7.10;;;;;;;;;;4266135;33;20458;-83
2023/05/16 03:50:17;;;;;;;11.15;7.70;;;;;;;;;;4264550;33;20111;-85
2023/05/16 03:52:43;;;;;;;7.15;6.25;;;;;;;;;;4266100;33;20064;-80
2023/05/16 03:55:10;;;;;;;14.30;6.72;;;;;;;;;;4272781;33;20077;-76
2023/05/16 03:57:37;;;;;;;11.45;8.00;;;;;;;;;;4280081;33;20061;-84
2023/05/16 04:00:06;;;;;;;10.55;7.47;;;;;;;;;;4279541;33;20437;-85
2023/05/16 04:02:39;;;;;;;8.77;7.10;;;;;;;;;;4276337;33;20077;-84
2023/05/16 04:05:07;;;;;;;8.35;6.50;;;;;;;;;;4279584;33;20075;-75
2023/05/16 04:07:33;;;;;;;11.45;6.57;;;;;;;;;;4278949;33;20501;-84
2023/05/16 04:09:59;;;;;;;8.27;6.45;;;;;;;;;;4277175;33;20094;-81
2023/05/16 04:12:27;;;;;;;10.30;6.82;;;;;;;;;;4277826;33;20106;-83
2023/05/16 04:14:53;;;;;;;10.88;6.85;;;;;;;;;;4279376;33;20071;-81
2023/05/16 04:17:19;;;;;;;12.90;6.53;;;;;;;;;;4280778;33;20060;-74
2023/05/16 04:19:46;;;;;;;11.05;6.65;;;;;;;;;;4289520;33;20150;-83
2023/05/16 04:22:12;;;;;;;9.43;6.60;;;;;;;;;;4280498;33;20045;-84
2023/05/16 04:24:38;;;;;;;10.75;7.65;;;;;;;;;;4273758;33;20056;-85
2023/05/16 04:27:05;;;;;;;12.98;7.82;;;;;;;;;;4266010;33;20101;-82
2023/05/16 04:29:32;;;;;;;10.60;7.97;;;;;;;;;;4268226;33;20075;-75
2023/05/16 04:31:58;;;;;;;6.57;5.85;;;;;;;;;;4275216;33;20038;-82
2023/05/16 04:34:26;;;;;;;9.43;7.72;;;;;;;;;;4279626;33;20057;-83
2023/05/16 04:36:52;;;;;;;8.23;6.75;;;;;;;;;;4280106;33;20418;-84
2023/05/16 04:39:19;;;;;;;9.40;7.85;;;;;;;;;;4278997;33;20153;-85
2023/05/16 04:41:45;;;;;;;12.32;7.15;;;;;;;;;;4277587;33;20042;-80
2023/05/16 04:44:11;;;;;;;9.77;7.57;;;;;;;;;;4278305;33;20712;-84
2023/05/16 04:46:37;;;;;;;9.70;7.82;;;;;;;;;;4280147;33;20168;-84
2023/05/16 04:49:04;;;;;;;9.57;7.55;;;;;;;;;;4279098;33;20083;-82
2023/05/16 04:51:31;;;;;;;9.45;7.50;;;;;;;;;;4273678;33;20045;-84
2023/05/16 04:53:57;;;;;;;6.35;5.55;;;;;;;;;;4293955;33;20659;-79
2023/05/16 04:56:23;;;;;;;12.80;8.43;;;;;;;;;;4300251;33;20105;-83
2023/05/16 04:58:50;;;;;;;16.12;7.90;;;;;;;;;;4300635;33;20037;-85
2023/05/16 05:01:16;;;;;;;9.57;7.35;;;;;;;;;;4299719;33;20036;-86
2023/05/16 05:03:43;;;;;;;8.07;7.28;;;;;;;;;;4298832;33;20144;-81
2023/05/16 05:06:09;;;;;;;9.45;8.15;;;;;;;;;;4292605;33;20150;-80
2023/05/16 05:08:35;;;;;;;14.57;7.72;;;;;;;;;;4296655;33;20104;-80
2023/05/16 05:11:01;;;;;;;10.05;7.40;;;;;;;;;;4289610;33;20091;-77
2023/05/16 05:13:28;;;;;;;9.32;6.82;;;;;;;;;;4298895;33;20049;-78
2023/05/16 05:15:54;;;;;;;9.65;7.72;;;;;;;;;;4302606;33;20096;-78
2023/05/16 05:18:20;;;;;;;17.17;7.85;;;;;;;;;;4294032;33;20063;-77
2023/05/16 05:20:46;;;;;;;12.95;7.75;;;;;;;;;;4303618;33;20064;-77
2023/05/16 05:23:12;;;;;;;9.40;7.47;;;;;;;;;;4294124;33;20482;-83
2023/05/16 05:25:38;;;;;;;15.88;7.18;;;;;;;;;;4306697;33;20057;-77
2023/05/16 05:28:04;;;;;;;9.85;6.95;;;;;;;;;;4309377;33;20048;-75
2023/05/16 05:30:31;;;;;;;12.45;7.93;;;;;;;;;;4307941;33;20420;-84
2023/05/16 05:32:57;;;;;;;11.25;7.32;;;;;;;;;;4310562;33;20064;-80
2023/05/16 05:35:23;;;;;;;9.27;7.22;;;;;;;;;;4264948;33;20049;-76
2023/05/16 05:37:49;;;;;;;14.90;7.47;;;;;;;;;;4270195;33;20079;-76
2023/05/16 05:40:15;;;;;;;10.55;7.12;;;;;;;;;;4265502;33;20080;-76
2023/05/16 05:45:14;;;;;;;10.55;8.32;;;;;;;;;;4270163;33;20063;-77
2023/05/16 05:47:42;;;;;;;9.25;6.78;;;;;;;;;;4270706;33;20412;-81
2023/05/16 05:50:10;;;;;;;10.85;6.82;;;;;;;;;;4272461;33;20091;-80
2023/05/16 05:52:36;;;;;;;9.45;6.90;;;;;;;;;;4269113;33;20053;-83
2023/05/16 05:55:03;;;;;;;8.98;7.60;;;;;;;;;;4271740;33;20167;-81
2023/05/16 05:57:29;;;;;;;9.60;8.35;;;;;;;;;;4270377;33;20076;-80
2023/05/16 05:59:55;;;;;;;9.07;6.90;;;;;;;;;;4274959;33;20454;-77
2023/05/16 06:02:21;;;;;;;8.48;6.93;;;;;;;;;;4274962;33;20061;-79
2023/05/16 06:04:49;;;;;;;9.98;7.55;;;;;;;;;;4270824;33;20057;-74
2023/05/16 06:07:21;;;;;;;10.55;8.80;;;;;;;;;;4280569;33;20102;-80
2023/05/16 06:09:47;;;;;;;10.18;7.93;;;;;;;;;;4284287;33;20112;-79
2023/05/16 06:12:14;;;;;;;10.40;8.27;;;;;;;;;;4293062;33;20474;-80
2023/05/16 06:14:40;;;;;;;13.07;8.63;;;;;;;;;;4291185;33;20017;-80
2023/05/16 06:17:06;;;;;;;10.00;8.25;;;;;;;;;;4298800;33;20589;-76
2023/05/16 06:19:32;;;;;;;11.52;8.60;;;;;;;;;;4291340;33;20045;-78
2023/05/16 06:21:58;;;;;;;9.07;7.90;;;;;;;;;;4276749;33;20049;-79
2023/05/16 06:24:30;;;;;;;9.05;7.20;;;;;;;;;;4277992;33;20109;-84
2023/05/16 06:26:57;;;;;;;13.35;7.55;;;;;;;;;;4278079;33;20564;-77
2023/05/16 06:29:22;;;;;;;13.52;7.00;;;;;;;;;;4276854;33;20037;-78
2023/05/16 06:31:49;;;;;;;11.82;6.85;;;;;;;;;;4274250;33;20089;-81
2023/05/16 06:34:15;;;;;;;13.45;7.12;;;;;;;;;;4281203;33;20046;-79
2023/05/16 06:36:43;;;;;;;7.93;6.35;;;;;;;;;;4280730;33;20078;-78
2023/05/16 06:39:08;;;;;;;6.90;6.28;;;;;;;;;;4293082;33;20052;-78
2023/05/16 06:41:35;;;;;;;6.30;5.68;;;;;;;;;;4295375;33;20041;-80
2023/05/16 06:44:03;;;;;;;5.90;4.57;;;;;;;;;;4297139;33;20034;-85
2023/05/16 06:46:30;;;;;;;6.37;4.95;;;;;;;;;;4297113;33;20042;-81
2023/05/16 06:48:56;;;;;;;6.57;5.40;;;;;;;;;;4296640;33;20147;-79
2023/05/16 06:51:22;;;;;;;4.95;4.45;;;;;;;;;;4294890;33;20061;-75
2023/05/16 06:53:48;;;;;;;7.15;5.68;;;;;;;;;;4292784;33;20079;-77
2023/05/16 06:56:15;;;;;;;6.97;6.32;;;;;;;;;;4295192;33;20045;-82
2023/05/16 06:58:41;;;;;;;8.57;5.82;;;;;;;;;;4296866;33;20045;-81
2023/05/16 07:01:07;;;;;;;9.50;5.70;;;;;;;;;;4280813;33;20090;-81
2023/05/16 07:03:34;;;;;;;5.55;4.85;;;;;;;;;;4275381;33;20101;-76
2023/05/16 07:06:00;;;;;;;5.90;5.05;;;;;;;;;;4266209;33;20072;-79
2023/05/16 07:08:26;;;;;;;9.25;4.82;;;;;;;;;;4267413;33;20057;-78
2023/05/16 07:10:52;;;;;;;10.90;4.65;;;;;;;;;;4265289;33;20030;-80
2023/05/16 07:13:18;;;;;;;4.03;3.72;;;;;;;;;;4267487;33;20121;-77
2023/05/16 07:15:45;;;;;;;7.43;4.12;;;;;;;;;;4267980;33;20072;-79
2023/05/16 07:18:11;;;;;;;6.20;4.35;;;;;;;;;;4262976;33;20071;-80
2023/05/16 07:20:37;;;;;;;7.43;3.75;;;;;;;;;;4253726;33;20074;-77
2023/05/16 07:23:03;;;;;;;4.43;4.03;;;;;;;;;;4254121;33;20504;-81
2023/05/16 07:25:30;;;;;;;4.20;3.80;;;;;;;;;;4260262;33;20046;-80
2023/05/16 07:27:56;;;;;;;4.80;3.45;;;;;;;;;;4266160;33;20187;-77
2023/05/16 07:30:22;;;;;;;7.25;2.78;;;;;;;;;;4265020;33;20515;-76
2023/05/16 07:32:48;;;;;;;2.87;2.40;;;;;;;;;;4302446;33;20060;-85
2023/05/16 07:35:21;;;;;;;2.65;2.47;;;;;;;;;;4309192;33;20071;-80
2023/05/16 07:37:47;;;;;;;4.07;2.28;;;;;;;;;;4313613;33;20103;-79
2023/05/16 07:40:14;;;;;;;2.40;2.30;;;;;;;;;;4281889;33;20038;-73
2023/05/16 07:42:39;;;;;;;4.00;2.60;;;;;;;;;;4280333;33;20048;-83
2023/05/16 07:45:06;;;;;;;10.45;3.10;;;;;;;;;;4278932;33;20058;-79
2023/05/16 07:47:32;;;;;;;3.00;2.72;;;;;;;;;;4278162;33;20549;-78
2023/05/16 07:49:59;;;;;;;2.33;2.08;;;;;;;;;;4278209;33;20476;-81
2023/05/16 07:52:25;;;;;;;3.25;2.58;;;;;;;;;;4278975;33;20169;-74
2023/05/16 07:54:51;;;;;;;3.03;2.55;;;;;;;;;;4278408;33;21008;-80
2023/05/16 07:57:17;;;;;;;6.03;2.50;;;;;;;;;;4279403;33;20037;-76
2023/05/16 07:59:43;;;;;;;5.97;2.60;;;;;;;;;;4277990;33;20224;-78
2023/05/16 08:02:10;;;;;;;6.72;2.78;;;;;;;;;;4277754;33;20034;-78
2023/05/16 08:04:36;;;;;;;2.45;2.25;;;;;;;;;;4275381;33;20651;-80
2023/05/16 08:07:02;;;;;;;3.42;2.03;;;;;;;;;;4275536;33;20060;-79
2023/05/16 08:09:29;;;;;;;2.12;2.03;;;;;;;;;;4278678;33;20068;-80
2023/05/16 08:11:55;;;;;;;2.70;2.50;;;;;;;;;;4289702;33;20040;-80
2023/05/16 08:14:21;;;;;;;2.75;1.90;;;;;;;;;;4291704;33;20109;-85
2023/05/16 08:16:48;;;;;;;2.05;1.95;;;;;;;;;;4289234;33;20571;-78
2023/05/16 08:19:14;;;;;;;1.60;1.45;;;;;;;;;;4293204;33;20077;-83
2023/05/16 08:21:40;;;;;;;2.33;2.12;;;;;;;;;;4292680;33;20076;-81
2023/05/16 08:24:07;;;;;;;2.92;1.80;;;;;;;;;;4296393;33;20262;-81
2023/05/16 08:26:34;;;;;;;2.58;2.30;;;;;;;;;;4254782;33;20037;-77
2023/05/16 08:29:01;;;;;;;3.42;2.60;;;;;;;;;;4249444;33;20996;-77
2023/05/16 08:31:27;;;;;;;5.55;2.20;;;;;;;;;;4250799;33;20046;-80
2023/05/16 08:33:54;;;;;;;6.43;2.92;;;;;;;;;;4260354;33;20054;-80
2023/05/16 08:36:20;;;;;;;2.28;1.95;;;;;;;;;;4250938;33;20095;-79
2023/05/16 08:38:48;;;;;;;1.87;1.77;;;;;;;;;;4228519;33;20054;-75
2023/05/16 08:41:14;;;;;;;2.22;2.08;;;;;;;;;;4248267;33;20065;-77
2023/05/16 08:43:41;;;;;;;2.05;1.95;;;;;;;;;;4250955;33;20076;-77
2023/05/16 08:46:07;;;;;;;1.70;1.60;;;;;;;;;;4249751;33;20121;-76
2023/05/16 08:48:35;;;;;;;2.00;1.90;;;;;;;;;;4239422;33;20441;-79
2023/05/16 08:51:01;;;;;;;2.20;2.10;;;;;;;;;;4235660;33;20102;-75
2023/05/16 08:53:32;;;;;;;4.43;1.98;;;;;;;;;;4230963;33;20118;-81
2023/05/16 08:55:59;;;;;;;1.95;1.85;;;;;;;;;;4224208;33;20068;-78
2023/05/16 08:58:26;;;;;;;3.42;1.60;;;;;;;;;;4254824;33;20440;-78
2023/05/16 09:00:52;;;;;;;1.45;1.40;;;;;;;;;;4261609;33;20042;-78
2023/05/16 09:03:20;;;;;;;4.12;2.25;;;;;;;;;;4259429;33;20087;-78
2023/05/16 09:05:46;;;;;;;5.03;1.50;;;;;;;;;;4250518;33;20054;-79
2023/05/16 09:08:12;;;;;;;1.50;1.40;;;;;;;;;;4277490;33;20067;-79
2023/05/16 09:10:39;;;;;;;1.70;1.60;;;;;;;;;;4292313;33;20083;-79
2023/05/16 09:13:05;;;;;;;2.40;1.95;;;;;;;;;;4277492;33;20041;-79
2023/05/16 09:15:32;;;;;;;2.50;1.40;;;;;;;;;;4276906;33;20454;-78
2023/05/16 09:17:59;;;;;;;1.98;1.80;;;;;;;;;;4278684;33;20125;-79
2023/05/16 09:20:25;;;;;;;3.47;1.37;;;;;;;;;;4283961;33;20045;-80
2023/05/16 09:22:53;;;;;;;1.50;1.50;;;;;;;;;;4285503;33;20071;-78
2023/05/16 09:25:20;;;;;;;1.65;1.65;;;;;;;;;;4291118;33;20037;-78
2023/05/16 09:27:47;;;;;;;1.65;1.33;;;;;;;;;;4286813;33;20041;-75
2023/05/16 09:30:20;;;;;;;2.60;1.40;;;;;;;;;;4288767;33;20054;-77
2023/05/16 09:32:46;;;;;;;5.93;2.62;;;;;;;;;;4286148;33;20073;-77
2023/05/16 09:35:16;;;;;;;4.28;1.15;;;;;;;;;;4297908;33;20116;-77
2023/05/16 09:37:52;;;;;;;1.00;0.90;;;;;;;;;;4295937;33;20399;-73
2023/05/16 09:40:24;;;;;;;1.20;1.20;;;;;;;;;;4284803;33;20092;-77
2023/05/16 09:43:03;;;;;;;1.00;1.00;;;;;;;;;;4277288;33;20484;-78
2023/05/16 09:45:30;;;;;;;2.12;2.00;;;;;;;;;;4290243;33;20793;-77
2023/05/16 09:48:15;;;;;;;1.00;1.00;;;;;;;;;;4262319;33;20102;-77
2023/05/16 09:50:51;;;;;;;1.05;1.05;;;;;;;;;;4263634;33;20120;-78
2023/05/16 09:53:24;;;;;;;1.55;1.27;;;;;;;;;;4262902;33;20080;-75
2023/05/16 09:55:58;;;;;;;1.15;1.15;;;;;;;;;;4264979;33;20208;-78
2023/05/16 09:58:28;;;;;;;0.98;0.93;;;;;;;;;;4265642;33;20186;-78
2023/05/16 10:00:56;;;;;;;1.30;1.20;;;;;;;;;;4233111;33;20047;-79
2023/05/16 10:03:23;;;;;;;1.30;1.20;;;;;;;;;;4224521;33;20547;-75
2023/05/16 10:05:49;;;;;;;1.42;1.40;;;;;;;;;;4227158;33;20083;-78
2023/05/16 10:08:16;;;;;;;2.90;1.25;;;;;;;;;;4226969;33;20051;-78
2023/05/16 10:10:42;;;;;;;2.83;1.50;;;;;;;;;;4228236;33;20484;-78
2023/05/16 10:13:10;;;;;;;1.20;1.10;;;;;;;;;;4234727;33;20110;-78
2023/05/16 10:15:37;;;;;;;9.45;1.27;;;;;;;;;;4234282;33;20121;-76
2023/05/16 10:18:06;;;;;;;4.12;3.67;;;;;;;;;;4235569;33;20067;-81
2023/05/16 10:20:33;;;;;;;2.08;1.98;;;;;;;;;;4262477;33;20075;-80
2023/05/16 10:23:00;;;;;;;1.30;1.25;;;;;;;;;;4263049;33;20053;-80
2023/05/16 10:25:36;;;;;;;1.95;1.37;;;;;;;;;;4257386;33;20490;-79
2023/05/16 10:28:04;;;;;;;1.20;1.15;;;;;;;;;;4244718;33;20376;-79
2023/05/16 10:30:32;;;;;;;1.58;1.35;;;;;;;;;;4248722;33;20062;-77
2023/05/16 10:33:00;;;;;;;1.45;1.45;;;;;;;;;;4280930;33;20044;-78
2023/05/16 10:35:26;;;;;;;1.30;1.20;;;;;;;;;;4288281;33;20182;-80
2023/05/16 10:37:53;;;;;;;4.00;1.98;;;;;;;;;;4289529;33;20095;-80
2023/05/16 10:40:20;;;;;;;2.65;1.42;;;;;;;;;;4293823;33;20332;-80
2023/05/16 10:42:56;;;;;;;2.50;1.35;;;;;;;;;;4291732;33;20100;-78
2023/05/16 10:45:23;;;;;;;1.60;1.50;;;;;;;;;;4268903;33;20095;-78
2023/05/16 10:47:58;;;;;;;5.07;1.70;;;;;;;;;;4275323;33;20076;-74
2023/05/16 10:50:32;;;;;;;5.47;1.50;;;;;;;;;;4275759;33;20515;-81
2023/05/16 10:53:18;;;;;;;4.68;1.62;;;;;;;;;;4266337;33;20050;-80
2023/05/16 10:55:45;;;;;;;1.42;1.33;;;;;;;;;;4253778;33;20061;-79
2023/05/16 10:58:11;;;;;;;1.20;1.20;;;;;;;;;;4262323;33;20174;-81
2023/05/16 11:03:26;;;;;;;1.37;1.27;;;;;;;;;;4245349;33;20081;-77
2023/05/16 11:05:53;;;;;;;2.12;1.50;;;;;;;;;;4249552;33;20116;-78
2023/05/16 11:08:19;;;;;;;4.47;1.33;;;;;;;;;;4249565;33;20075;-78
2023/05/16 11:10:45;;;;;;;1.62;1.52;;;;;;;;;;4249591;33;20076;-78
2023/05/16 11:13:14;;;;;;;1.70;1.60;;;;;;;;;;4249352;33;20119;-75
2023/05/16 11:15:41;;;;;;;4.03;1.20;;;;;;;;;;4249735;33;20061;-78
2023/05/16 11:18:13;;;;;;;3.97;1.75;;;;;;;;;;4265578;33;20049;-79
2023/05/16 11:20:39;;;;;;;1.25;1.15;;;;;;;;;;4264536;33;20031;-78
2023/05/16 11:23:18;;;;;;;1.80;1.70;;;;;;;;;;4266964;33;20516;-79
2023/05/16 11:25:44;;;;;;;1.20;1.20;;;;;;;;;;4266559;33;20489;-80
2023/05/16 11:28:11;;;;;;;1.70;1.60;;;;;;;;;;4266897;33;20076;-81
2023/05/16 11:30:43;;;;;;;1.70;1.60;;;;;;;;;;4266128;33;20046;-79
2023/05/16 11:33:11;;;;;;;1.92;1.48;;;;;;;;;;4264771;33;20107;-79
2023/05/16 11:35:37;;;;;;;2.17;1.62;;;;;;;;;;4266343;33;20375;-78
2023/05/16 11:38:03;;;;;;;2.97;1.75;;;;;;;;;;4265579;33;20049;-80
2023/05/16 11:40:30;;;;;;;1.80;1.80;;;;;;;;;;4266342;33;20089;-77
2023/05/16 11:42:59;;;;;;;2.05;1.58;;;;;;;;;;4270419;33;20044;-76
2023/05/16 11:45:25;;;;;;;1.42;1.33;;;;;;;;;;4267376;33;20048;-78
2023/05/16 11:47:51;;;;;;;2.78;1.50;;;;;;;;;;4277627;33;20049;-80
2023/05/16 11:50:18;;;;;;;3.03;1.50;;;;;;;;;;4267294;33;20075;-78
2023/05/16 11:52:46;;;;;;;3.33;1.45;;;;;;;;;;4258489;33;20156;-79
2023/05/16 11:55:14;;;;;;;5.90;1.50;;;;;;;;;;4252269;33;20046;-77
2023/05/16 11:57:43;;;;;;;1.95;1.50;;;;;;;;;;4250351;33;20090;-78
2023/05/16 12:00:16;;;;;;;4.78;1.60;;;;;;;;;;4256638;33;20031;-79
2023/05/16 12:02:43;;;;;;;9.48;1.87;;;;;;;;;;4258638;33;20389;-79
2023/05/16 12:05:09;;;;;;;2.25;1.85;;;;;;;;;;4248689;33;20380;-77
2023/05/16 12:07:36;;;;;;;3.50;2.10;;;;;;;;;;4251672;33;20097;-79
2023/05/16 12:10:09;;;;;;;1.60;1.50;;;;;;;;;;4264379;33;20050;-79
2023/05/16 12:12:37;;;;;;;5.90;1.40;;;;;;;;;;4266225;33;20063;-78
2023/05/16 12:15:05;;;;;;;2.15;1.67;;;;;;;;;;4264582;33;20045;-75
2023/05/16 12:17:32;;;;;;;3.90;1.40;;;;;;;;;;4266003;33;20989;-79
2023/05/16 12:19:58;;;;;;;1.25;1.20;;;;;;;;;;4265142;33;20050;-80
2023/05/16 12:22:25;;;;;;;1.40;1.30;;;;;;;;;;4264703;33;20140;-79
2023/05/16 12:24:51;;;;;;;1.23;1.12;;;;;;;;;;4264252;33;20105;-79
2023/05/16 12:27:20;;;;;;;1.70;1.60;;;;;;;;;;4263447;33;20068;-79
2023/05/16 12:29:47;;;;;;;2.17;1.80;;;;;;;;;;4265259;33;20509;-79
2023/05/16 12:32:16;;;;;;;1.52;1.48;;;;;;;;;;4265687;33;20075;-79
2023/05/16 12:34:47;;;;;;;5.45;1.50;;;;;;;;;;4265568;33;20417;-78
2023/05/16 12:37:14;;;;;;;4.12;1.70;;;;;;;;;;4263697;33;20042;-77
2023/05/16 12:39:40;;;;;;;1.42;1.42;;;;;;;;;;4264948;33;20089;-78
2023/05/16 12:42:08;;;;;;;2.15;2.00;;;;;;;;;;4265429;33;20046;-79
2023/05/16 12:44:34;;;;;;;1.48;1.45;;;;;;;;;;4265289;33;20046;-78
2023/05/16 12:47:01;;;;;;;2.55;1.67;;;;;;;;;;4265498;33;20288;-79
2023/05/16 12:49:27;;;;;;;3.10;1.60;;;;;;;;;;4263040;33;20430;-78
2023/05/16 12:51:54;;;;;;;1.37;1.37;;;;;;;;;;4265672;33;20847;-77
2023/05/16 12:54:24;;;;;;;1.52;1.42;;;;;;;;;;4252655;33;20132;-78
2023/05/16 12:56:50;;;;;;;1.80;1.70;;;;;;;;;;4251922;33;20593;-78
2023/05/16 12:59:18;;;;;;;2.08;1.60;;;;;;;;;;4254861;33;20056;-76
2023/05/16 13:01:45;;;;;;;3.62;1.70;;;;;;;;;;4259862;33;20061;-77
2023/05/16 13:04:15;;;;;;;1.90;1.80;;;;;;;;;;4251613;33;20109;-77
2023/05/16 13:06:41;;;;;;;1.70;1.60;;;;;;;;;;4251341;33;20072;-79
2023/05/16 13:09:07;;;;;;;2.45;1.67;;;;;;;;;;4276900;33;20997;-74
2023/05/16 13:11:40;;;;;;;3.10;2.47;;;;;;;;;;4273673;33;20053;-77
2023/05/16 13:14:06;;;;;;;1.67;1.58;;;;;;;;;;4283006;33;20394;-77
2023/05/16 13:16:32;;;;;;;3.30;1.70;;;;;;;;;;4263923;33;20468;-79
2023/05/16 13:18:58;;;;;;;1.65;1.55;;;;;;;;;;4278542;33;20143;-79
2023/05/16 13:21:26;;;;;;;1.60;1.50;;;;;;;;;;4281333;33;20083;-78
2023/05/16 13:23:52;;;;;;;2.08;1.90;;;;;;;;;;4281089;33;20046;-79
2023/05/16 13:26:20;;;;;;;1.33;1.33;;;;;;;;;;4287219;33;20453;-80
2023/05/16 13:28:50;;;;;;;3.22;1.85;;;;;;;;;;4286963;33;20071;-78
2023/05/16 13:31:16;;;;;;;1.45;1.35;;;;;;;;;;4289453;33;20375;-74
2023/05/16 13:33:42;;;;;;;3.37;1.73;;;;;;;;;;4251296;33;20050;-77
2023/05/16 13:36:08;;;;;;;4.55;1.90;;;;;;;;;;4250118;33;20060;-78
2023/05/16 13:38:35;;;;;;;2.62;1.73;;;;;;;;;;4220906;33;20145;-78
2023/05/16 13:41:01;;;;;;;2.20;1.62;;;;;;;;;;4214569;33;20082;-77
2023/05/16 13:43:27;;;;;;;3.20;1.90;;;;;;;;;;4205174;34;20047;-77
2023/05/16 13:45:53;;;;;;;2.30;1.50;;;;;;;;;;4207724;34;20066;-78
2023/05/16 13:48:19;;;;;;;1.58;1.30;;;;;;;;;;4207487;34;20070;-78
2023/05/16 13:50:46;;;;;;;2.22;2.12;;;;;;;;;;4207457;34;20047;-77
2023/05/16 13:53:11;;;;;;;2.20;2.00;;;;;;;;;;4212481;34;20107;-76
2023/05/16 13:55:38;;;;;;;2.17;1.30;;;;;;;;;;4208172;33;20132;-78
2023/05/16 13:58:05;;;;;;;4.68;2.97;;;;;;;;;;4205898;34;20106;-90
2023/05/16 14:00:31;;;;;;;3.65;1.52;;;;;;;;;;4208236;34;20057;-89
2023/05/16 14:02:57;;;;;;;2.03;1.92;;;;;;;;;;4207323;33;20443;-79
2023/05/16 14:05:25;;;;;;;2.35;1.87;;;;;;;;;;4215462;33;20149;-75
2023/05/16 14:07:51;;;;;;;1.85;1.75;;;;;;;;;;4220981;33;20743;-78
2023/05/16 14:10:17;;;;;;;8.40;1.77;;;;;;;;;;4246023;33;20072;-77
2023/05/16 14:12:43;;;;;;;7.70;1.75;;;;;;;;;;4250049;33;20057;-77
2023/05/16 14:15:10;;;;;;;2.60;1.80;;;;;;;;;;4249875;33;20090;-76
2023/05/16 14:17:36;;;;;;;5.62;3.25;;;;;;;;;;4250203;33;20385;-78
2023/05/16 14:20:07;;;;;;;1.92;1.80;;;;;;;;;;4249356;33;20066;-76
2023/05/16 14:22:33;;;;;;;3.50;1.55;;;;;;;;;;4250395;33;20851;-78
2023/05/16 14:25:00;;;;;;;1.60;1.50;;;;;;;;;;4250091;33;20101;-75
2023/05/16 14:27:26;;;;;;;4.10;1.98;;;;;;;;;;4249034;33;20193;-76
2023/05/16 14:29:52;;;;;;;1.98;1.87;;;;;;;;;;4248490;33;20084;-76
2023/05/16 14:32:18;;;;;;;3.08;1.87;;;;;;;;;;4249800;33;20042;-77
2023/05/16 14:34:44;;;;;;;3.90;1.55;;;;;;;;;;4263406;33;20053;-76
2023/05/16 14:37:10;;;;;;;5.22;2.08;;;;;;;;;;4253424;33;20181;-77
2023/05/16 14:39:37;;;;;;;2.60;1.70;;;;;;;;;;4248019;33;20034;-76
2023/05/16 14:42:03;;;;;;;2.03;1.92;;;;;;;;;;4250263;33;20041;-77
2023/05/16 14:44:29;;;;;;;2.05;1.90;;;;;;;;;;4248977;33;20060;-78
2023/05/16 14:46:55;;;;;;;1.80;1.70;;;;;;;;;;4246642;33;20099;-76
2023/05/16 14:49:21;;;;;;;3.50;1.90;;;;;;;;;;4249795;33;20082;-73
2023/05/16 14:51:51;;;;;;;1.83;1.60;;;;;;;;;;4248670;33;20050;-79
2023/05/16 14:54:17;;;;;;;1.85;1.77;;;;;;;;;;4252617;33;20046;-77
2023/05/16 14:56:44;;;;;;;1.85;1.73;;;;;;;;;;4251187;33;20037;-78
2023/05/16 14:59:11;;;;;;;1.87;1.77;;;;;;;;;;4253174;33;20096;-78
2023/05/16 15:01:37;;;;;;;1.90;1.80;;;;;;;;;;4266934;33;20445;-78
2023/05/16 15:04:04;;;;;;;1.70;1.60;;;;;;;;;;4266242;33;20070;-76
2023/05/16 15:06:30;;;;;;;7.50;2.12;;;;;;;;;;4252031;33;20073;-77
2023/05/16 15:08:56;;;;;;;5.15;2.05;;;;;;;;;;4252761;33;20484;-75
2023/05/16 15:11:22;;;;;;;1.90;1.80;;;;;;;;;;4248939;33;20162;-75
2023/05/16 15:13:48;;;;;;;4.78;2.00;;;;;;;;;;4250036;33;20510;-75
2023/05/16 15:16:15;;;;;;;3.12;2.20;;;;;;;;;;4250121;33;20062;-76
2023/05/16 15:18:42;;;;;;;2.58;1.98;;;;;;;;;;4249017;33;20057;-75
2023/05/16 15:21:08;;;;;;;1.48;1.48;;;;;;;;;;4242560;33;20047;-75
2023/05/16 15:23:35;;;;;;;1.90;1.62;;;;;;;;;;4249494;33;20080;-74
2023/05/16 15:26:01;;;;;;;1.62;1.62;;;;;;;;;;4252009;33;20046;-75
2023/05/16 15:28:27;;;;;;;1.60;1.50;;;;;;;;;;4251285;33;20079;-75
2023/05/16 15:30:53;;;;;;;2.80;1.80;;;;;;;;;;4252536;33;20451;-76
2023/05/16 15:33:19;;;;;;;2.10;1.67;;;;;;;;;;4252214;33;20121;-76
2023/05/16 15:35:45;;;;;;;2.22;1.70;;;;;;;;;;4245024;33;20090;-76
2023/05/16 15:38:12;;;;;;;1.85;1.77;;;;;;;;;;4238191;33;20088;-77
2023/05/16 15:40:38;;;;;;;2.67;1.70;;;;;;;;;;4236857;33;20534;-76
2023/05/16 15:43:04;;;;;;;5.35;2.47;;;;;;;;;;4246035;33;20058;-77
2023/05/16 15:45:31;;;;;;;1.62;1.52;;;;;;;;;;4244201;33;20073;-76
2023/05/16 15:47:57;;;;;;;4.20;1.85;;;;;;;;;;4243167;33;20201;-74
2023/05/16 15:50:23;;;;;;;2.97;2.05;;;;;;;;;;4246025;33;20065;-76
2023/05/16 15:52:50;;;;;;;5.60;3.67;;;;;;;;;;4247239;33;20076;-75
2023/05/16 15:55:16;;;;;;;2.55;2.35;;;;;;;;;;4242563;33;20068;-78
2023/05/16 15:57:42;;;;;;;3.12;2.17;;;;;;;;;;4245521;33;20042;-75
2023/05/16 16:00:09;;;;;;;6.78;1.55;;;;;;;;;;4246543;33;20097;-78
2023/05/16 16:02:38;;;;;;;2.03;1.92;;;;;;;;;;4254975;33;20204;-78
2023/05/16 16:05:05;;;;;;;2.22;2.00;;;;;;;;;;4259259;33;20067;-76
2023/05/16 16:07:31;;;;;;;3.72;2.45;;;;;;;;;;4249714;33;20444;-78
2023/05/16 16:09:58;;;;;;;3.17;1.58;;;;;;;;;;4249359;33;20065;-75
2023/05/16 16:12:28;;;;;;;7.85;2.28;;;;;;;;;;4249921;33;20076;-76
2023/05/16 16:14:53;;;;;;;1.90;1.80;;;;;;;;;;4251391;33;20068;-75
2023/05/16 16:17:20;;;;;;;2.00;1.90;;;;;;;;;;4251850;33;20088;-76
2023/05/16 16:19:46;;;;;;;2.15;2.05;;;;;;;;;;4250824;33;20042;-74
2023/05/16 16:22:12;;;;;;;1.87;1.73;;;;;;;;;;4250705;33;20389;-76
2023/05/16 16:24:38;;;;;;;1.77;1.67;;;;;;;;;;4223298;33;20084;-76
2023/05/16 16:27:05;;;;;;;3.92;1.92;;;;;;;;;;4208091;34;20051;-76
2023/05/16 16:29:31;;;;;;;3.22;1.87;;;;;;;;;;4203044;34;20070;-75
2023/05/16 16:31:57;;;;;;;2.05;1.95;;;;;;;;;;4204861;34;20069;-73
2023/05/16 16:34:23;;;;;;;2.08;1.87;;;;;;;;;;4201981;34;20043;-76
2023/05/16 16:36:49;;;;;;;2.92;2.20;;;;;;;;;;4204527;34;20119;-76
2023/05/16 16:39:15;;;;;;;2.95;1.95;;;;;;;;;;4206404;34;20088;-76
2023/05/16 16:41:42;;;;;;;3.17;1.83;;;;;;;;;;4211471;34;20043;-75
2023/05/16 16:44:08;;;;;;;3.53;1.87;;;;;;;;;;4208440;34;20050;-74